Terminal Aerodrome Forecast
Issued by NWS

Home | Current Version | Previous Version | Text Only | Print | Product List | Glossary On
Versions: 1 2 3 4 5 6 7 8 9 10 11 12 13 14 15
000
FTAK31 PANC 251122
TAFAHO
TAF
PAHO 251122Z 2512/2612 17008KT P6SM OVC050
     FM251500 20014KT P6SM -SHRA SCT020 BKN035
     FM260300 17006KT P6SM BKN050=

USA.gov is the U.S. government's official web portal to all federal, state and local government web resources and services.